Terminal Aerodrome Forecast
Issued by NWS Amarillo, TX

Current Version | Previous Version | Text Only | Print | Product List | Glossary On
Versions: 1 2 3 4 5 6 7 8 9 10 11 12 13 14 15 16 17
872
FTUS44 KAMA 190520
TAFAMA
TAF
KAMA 190520Z 1906/2006 19005KT P6SM SKC
     FM191700 20016G23KT P6SM SKC
     FM200000 19012KT P6SM SKC=

USA.gov is the U.S. government's official web portal to all federal, state and local government web resources and services.